sensor_id;sensor_type;location;lat;lon;timestamp;P1;durP1;ratioP1;P2;durP2;ratioP2
70049;SDS011;57391;51.306;22.680;2023-07-09T00:01:59;15.70;;;10.00;;
70049;SDS011;57391;51.306;22.680;2023-07-09T00:04:26;15.30;;;10.00;;
70049;SDS011;57391;51.306;22.680;2023-07-09T00:06:58;15.60;;;9.90;;
70049;SDS011;57391;51.306;22.680;2023-07-09T00:09:27;14.90;;;9.60;;
70049;SDS011;57391;51.306;22.680;2023-07-09T00:11:54;14.90;;;8.90;;
70049;SDS011;57391;51.306;22.680;2023-07-09T00:14:22;16.10;;;9.20;;
70049;SDS011;57391;51.306;22.680;2023-07-09T00:16:49;14.10;;;8.60;;
70049;SDS011;57391;51.306;22.680;2023-07-09T00:19:20;18.10;;;9.80;;
70049;SDS011;57391;51.306;22.680;2023-07-09T00:21:50;18.20;;;9.80;;
70049;SDS011;57391;51.306;22.680;2023-07-09T00:24:20;18.20;;;9.70;;
70049;SDS011;57391;51.306;22.680;2023-07-09T00:26:47;15.10;;;9.40;;
70049;SDS011;57391;51.306;22.680;2023-07-09T00:29:16;18.30;;;9.80;;
70049;SDS011;57391;51.306;22.680;2023-07-09T00:31:44;15.50;;;9.30;;
70049;SDS011;57391;51.306;22.680;2023-07-09T00:34:14;16.00;;;9.50;;
70049;SDS011;57391;51.306;22.680;2023-07-09T00:36:43;17.20;;;9.50;;
70049;SDS011;57391;51.306;22.680;2023-07-09T00:39:19;16.10;;;10.00;;
70049;SDS011;57391;51.306;22.680;2023-07-09T00:41:49;17.70;;;9.60;;
70049;SDS011;57391;51.306;22.680;2023-07-09T00:49:16;15.10;;;9.80;;
70049;SDS011;57391;51.306;22.680;2023-07-09T00:51:54;16.80;;;10.10;;
70049;SDS011;57391;51.306;22.680;2023-07-09T00:54:35;17.40;;;10.10;;
70049;SDS011;57391;51.306;22.680;2023-07-09T00:57:16;17.00;;;9.70;;
70049;SDS011;57391;51.306;22.680;2023-07-09T00:59:52;12.40;;;8.60;;
70049;SDS011;57391;51.306;22.680;2023-07-09T01:02:23;15.60;;;9.60;;
70049;SDS011;57391;51.306;22.680;2023-07-09T01:04:54;16.40;;;9.40;;
70049;SDS011;57391;51.306;22.680;2023-07-09T01:07:28;15.80;;;8.90;;
70049;SDS011;57391;51.306;22.680;2023-07-09T01:09:55;15.50;;;9.50;;
70049;SDS011;57391;51.306;22.680;2023-07-09T01:12:23;14.50;;;8.90;;
70049;SDS011;57391;51.306;22.680;2023-07-09T01:14:52;14.80;;;9.70;;
70049;SDS011;57391;51.306;22.680;2023-07-09T01:17:27;13.60;;;9.70;;
70049;SDS011;57391;51.306;22.680;2023-07-09T01:19:56;14.30;;;9.10;;
70049;SDS011;57391;51.306;22.680;2023-07-09T01:22:23;15.60;;;9.90;;
70049;SDS011;57391;51.306;22.680;2023-07-09T01:24:53;16.40;;;9.00;;
70049;SDS011;57391;51.306;22.680;2023-07-09T01:27:31;13.10;;;8.90;;
70049;SDS011;57391;51.306;22.680;2023-07-09T01:30:13;16.10;;;9.70;;
70049;SDS011;57391;51.306;22.680;2023-07-09T01:32:50;15.70;;;10.00;;
70049;SDS011;57391;51.306;22.680;2023-07-09T01:35:20;15.60;;;10.00;;
70049;SDS011;57391;51.306;22.680;2023-07-09T01:37:48;13.00;;;9.40;;
70049;SDS011;57391;51.306;22.680;2023-07-09T01:40:18;13.90;;;9.40;;
70049;SDS011;57391;51.306;22.680;2023-07-09T01:42:47;14.00;;;9.50;;
70049;SDS011;57391;51.306;22.680;2023-07-09T01:45:14;12.50;;;9.60;;
70049;SDS011;57391;51.306;22.680;2023-07-09T01:47:42;15.00;;;9.10;;
70049;SDS011;57391;51.306;22.680;2023-07-09T01:50:10;16.50;;;9.10;;
70049;SDS011;57391;51.306;22.680;2023-07-09T01:52:40;14.10;;;8.80;;
70049;SDS011;57391;51.306;22.680;2023-07-09T01:55:10;15.30;;;9.20;;
70049;SDS011;57391;51.306;22.680;2023-07-09T01:57:38;17.30;;;9.70;;
70049;SDS011;57391;51.306;22.680;2023-07-09T02:00:10;16.10;;;8.90;;
70049;SDS011;57391;51.306;22.680;2023-07-09T02:02:45;14.00;;;8.80;;
70049;SDS011;57391;51.306;22.680;2023-07-09T02:05:17;17.60;;;9.30;;
70049;SDS011;57391;51.306;22.680;2023-07-09T02:07:47;16.10;;;9.50;;
70049;SDS011;57391;51.306;22.680;2023-07-09T02:10:16;14.50;;;9.00;;
70049;SDS011;57391;51.306;22.680;2023-07-09T02:12:44;13.90;;;8.50;;
70049;SDS011;57391;51.306;22.680;2023-07-09T02:15:12;15.60;;;8.80;;
70049;SDS011;57391;51.306;22.680;2023-07-09T02:17:39;13.60;;;9.10;;
70049;SDS011;57391;51.306;22.680;2023-07-09T02:20:08;15.20;;;9.00;;
70049;SDS011;57391;51.306;22.680;2023-07-09T02:22:38;19.80;;;9.60;;
70049;SDS011;57391;51.306;22.680;2023-07-09T02:25:07;15.20;;;9.30;;
70049;SDS011;57391;51.306;22.680;2023-07-09T02:27:36;16.30;;;9.30;;
70049;SDS011;57391;51.306;22.680;2023-07-09T02:30:05;15.60;;;9.20;;
70049;SDS011;57391;51.306;22.680;2023-07-09T02:32:34;16.20;;;9.30;;
70049;SDS011;57391;51.306;22.680;2023-07-09T02:35:01;14.50;;;9.20;;
70049;SDS011;57391;51.306;22.680;2023-07-09T02:37:28;14.50;;;10.10;;
70049;SDS011;57391;51.306;22.680;2023-07-09T02:39:55;17.00;;;10.50;;
70049;SDS011;57391;51.306;22.680;2023-07-09T02:42:22;16.70;;;10.00;;
70049;SDS011;57391;51.306;22.680;2023-07-09T02:44:50;15.30;;;9.30;;
70049;SDS011;57391;51.306;22.680;2023-07-09T02:47:19;18.60;;;10.40;;
70049;SDS011;57391;51.306;22.680;2023-07-09T02:49:46;14.20;;;9.90;;
70049;SDS011;57391;51.306;22.680;2023-07-09T02:52:13;16.60;;;9.60;;
70049;SDS011;57391;51.306;22.680;2023-07-09T02:54:40;15.80;;;9.50;;
70049;SDS011;57391;51.306;22.680;2023-07-09T02:57:07;13.90;;;10.10;;
70049;SDS011;57391;51.306;22.680;2023-07-09T02:59:34;15.60;;;9.40;;
70049;SDS011;57391;51.306;22.680;2023-07-09T03:02:01;15.50;;;9.70;;
70049;SDS011;57391;51.306;22.680;2023-07-09T03:04:29;14.20;;;9.50;;
70049;SDS011;57391;51.306;22.680;2023-07-09T03:06:57;14.30;;;9.60;;
70049;SDS011;57391;51.306;22.680;2023-07-09T03:09:26;17.50;;;10.00;;
70049;SDS011;57391;51.306;22.680;2023-07-09T03:11:54;13.70;;;9.30;;
70049;SDS011;57391;51.306;22.680;2023-07-09T03:14:22;13.00;;;9.00;;
70049;SDS011;57391;51.306;22.680;2023-07-09T03:16:49;18.00;;;10.00;;
70049;SDS011;57391;51.306;22.680;2023-07-09T03:19:16;17.20;;;10.60;;
70049;SDS011;57391;51.306;22.680;2023-07-09T03:21:43;16.10;;;9.40;;
70049;SDS011;57391;51.306;22.680;2023-07-09T03:24:10;15.90;;;9.80;;
70049;SDS011;57391;51.306;22.680;2023-07-09T03:26:37;17.00;;;10.10;;
70049;SDS011;57391;51.306;22.680;2023-07-09T03:29:04;17.00;;;9.50;;
70049;SDS011;57391;51.306;22.680;2023-07-09T03:31:30;14.30;;;8.90;;
70049;SDS011;57391;51.306;22.680;2023-07-09T03:34:01;15.70;;;9.50;;
70049;SDS011;57391;51.306;22.680;2023-07-09T03:36:28;14.70;;;9.40;;
70049;SDS011;57391;51.306;22.680;2023-07-09T03:38:56;15.10;;;9.40;;
70049;SDS011;57391;51.306;22.680;2023-07-09T03:41:24;15.20;;;9.70;;
70049;SDS011;57391;51.306;22.680;2023-07-09T03:43:51;15.20;;;10.10;;
70049;SDS011;57391;51.306;22.680;2023-07-09T03:46:19;14.20;;;9.40;;
70049;SDS011;57391;51.306;22.680;2023-07-09T03:48:46;14.40;;;9.60;;
70049;SDS011;57391;51.306;22.680;2023-07-09T03:51:13;15.60;;;10.10;;
70049;SDS011;57391;51.306;22.680;2023-07-09T03:53:40;16.60;;;10.40;;
70049;SDS011;57391;51.306;22.680;2023-07-09T03:56:07;14.00;;;9.40;;
70049;SDS011;57391;51.306;22.680;2023-07-09T03:58:35;14.50;;;9.70;;
70049;SDS011;57391;51.306;22.680;2023-07-09T04:01:02;14.10;;;9.90;;
70049;SDS011;57391;51.306;22.680;2023-07-09T04:03:29;15.80;;;10.00;;
70049;SDS011;57391;51.306;22.680;2023-07-09T04:05:56;14.20;;;10.00;;
70049;SDS011;57391;51.306;22.680;2023-07-09T04:08:23;16.50;;;10.60;;
70049;SDS011;57391;51.306;22.680;2023-07-09T04:10:59;13.30;;;9.50;;
70049;SDS011;57391;51.306;22.680;2023-07-09T04:13:29;12.10;;;9.70;;
70049;SDS011;57391;51.306;22.680;2023-07-09T04:15:56;12.80;;;10.20;;
70049;SDS011;57391;51.306;22.680;2023-07-09T04:18:23;18.30;;;10.90;;
70049;SDS011;57391;51.306;22.680;2023-07-09T04:20:51;13.70;;;9.50;;
70049;SDS011;57391;51.306;22.680;2023-07-09T04:23:19;13.30;;;9.80;;
70049;SDS011;57391;51.306;22.680;2023-07-09T04:25:46;14.40;;;9.90;;
70049;SDS011;57391;51.306;22.680;2023-07-09T04:28:14;13.40;;;9.60;;
70049;SDS011;57391;51.306;22.680;2023-07-09T04:30:59;13.90;;;9.90;;
70049;SDS011;57391;51.306;22.680;2023-07-09T04:33:26;12.90;;;9.80;;
70049;SDS011;57391;51.306;22.680;2023-07-09T04:35:54;11.20;;;9.60;;
70049;SDS011;57391;51.306;22.680;2023-07-09T04:38:22;11.80;;;9.20;;
70049;SDS011;57391;51.306;22.680;2023-07-09T04:40:49;12.50;;;9.30;;
70049;SDS011;57391;51.306;22.680;2023-07-09T04:43:16;16.10;;;8.90;;
70049;SDS011;57391;51.306;22.680;2023-07-09T04:45:43;13.00;;;9.10;;
70049;SDS011;57391;51.306;22.680;2023-07-09T04:48:09;12.30;;;9.20;;
70049;SDS011;57391;51.306;22.680;2023-07-09T04:50:36;13.40;;;9.60;;
70049;SDS011;57391;51.306;22.680;2023-07-09T04:53:03;11.20;;;9.00;;
70049;SDS011;57391;51.306;22.680;2023-07-09T04:55:30;12.00;;;9.30;;
70049;SDS011;57391;51.306;22.680;2023-07-09T04:57:57;14.90;;;9.10;;
70049;SDS011;57391;51.306;22.680;2023-07-09T05:00:24;13.10;;;9.10;;
70049;SDS011;57391;51.306;22.680;2023-07-09T05:02:50;12.10;;;9.20;;
70049;SDS011;57391;51.306;22.680;2023-07-09T05:05:17;12.30;;;9.00;;
70049;SDS011;57391;51.306;22.680;2023-07-09T05:07:44;10.10;;;8.00;;
70049;SDS011;57391;51.306;22.680;2023-07-09T05:10:11;12.20;;;8.10;;
70049;SDS011;57391;51.306;22.680;2023-07-09T05:12:52;10.50;;;7.80;;
70049;SDS011;57391;51.306;22.680;2023-07-09T05:15:22;10.70;;;7.70;;
70049;SDS011;57391;51.306;22.680;2023-07-09T05:17:49;11.80;;;8.30;;
70049;SDS011;57391;51.306;22.680;2023-07-09T05:20:16;11.00;;;7.60;;
70049;SDS011;57391;51.306;22.680;2023-07-09T05:22:43;9.50;;;7.10;;
70049;SDS011;57391;51.306;22.680;2023-07-09T05:25:11;9.90;;;7.10;;
70049;SDS011;57391;51.306;22.680;2023-07-09T05:27:38;10.90;;;7.10;;
70049;SDS011;57391;51.306;22.680;2023-07-09T05:30:06;9.20;;;6.60;;
70049;SDS011;57391;51.306;22.680;2023-07-09T05:32:33;8.50;;;5.90;;
70049;SDS011;57391;51.306;22.680;2023-07-09T05:35:00;7.30;;;5.30;;
70049;SDS011;57391;51.306;22.680;2023-07-09T05:37:27;7.80;;;5.70;;
70049;SDS011;57391;51.306;22.680;2023-07-09T05:39:54;8.30;;;5.60;;
70049;SDS011;57391;51.306;22.680;2023-07-09T05:42:21;8.40;;;6.20;;
70049;SDS011;57391;51.306;22.680;2023-07-09T05:44:48;9.00;;;6.00;;
70049;SDS011;57391;51.306;22.680;2023-07-09T05:47:15;7.10;;;5.30;;
70049;SDS011;57391;51.306;22.680;2023-07-09T05:49:42;6.90;;;5.00;;
70049;SDS011;57391;51.306;22.680;2023-07-09T05:52:09;9.50;;;4.70;;
70049;SDS011;57391;51.306;22.680;2023-07-09T05:54:36;7.00;;;4.70;;
70049;SDS011;57391;51.306;22.680;2023-07-09T05:57:02;7.70;;;4.90;;
70049;SDS011;57391;51.306;22.680;2023-07-09T05:59:29;7.50;;;5.00;;
70049;SDS011;57391;51.306;22.680;2023-07-09T06:01:56;7.80;;;4.90;;
70049;SDS011;57391;51.306;22.680;2023-07-09T06:04:23;6.80;;;4.80;;
70049;SDS011;57391;51.306;22.680;2023-07-09T06:06:52;6.80;;;4.30;;
70049;SDS011;57391;51.306;22.680;2023-07-09T06:09:20;7.30;;;4.40;;
70049;SDS011;57391;51.306;22.680;2023-07-09T06:11:47;6.20;;;4.50;;
70049;SDS011;57391;51.306;22.680;2023-07-09T06:14:13;6.00;;;4.40;;
70049;SDS011;57391;51.306;22.680;2023-07-09T06:16:40;6.40;;;4.30;;
70049;SDS011;57391;51.306;22.680;2023-07-09T06:19:07;8.00;;;4.80;;
70049;SDS011;57391;51.306;22.680;2023-07-09T06:21:34;7.80;;;4.70;;
70049;SDS011;57391;51.306;22.680;2023-07-09T06:24:01;5.90;;;4.20;;
70049;SDS011;57391;51.306;22.680;2023-07-09T06:26:28;5.30;;;4.00;;
70049;SDS011;57391;51.306;22.680;2023-07-09T06:28:55;5.50;;;3.90;;
70049;SDS011;57391;51.306;22.680;2023-07-09T06:31:22;5.80;;;4.10;;
70049;SDS011;57391;51.306;22.680;2023-07-09T06:33:51;6.30;;;3.70;;
70049;SDS011;57391;51.306;22.680;2023-07-09T06:36:19;4.40;;;3.40;;
70049;SDS011;57391;51.306;22.680;2023-07-09T06:38:46;4.80;;;3.20;;
70049;SDS011;57391;51.306;22.680;2023-07-09T06:41:14;5.50;;;3.90;;
70049;SDS011;57391;51.306;22.680;2023-07-09T06:43:42;6.10;;;3.70;;
70049;SDS011;57391;51.306;22.680;2023-07-09T06:46:11;4.70;;;3.50;;
70049;SDS011;57391;51.306;22.680;2023-07-09T06:48:39;6.80;;;3.50;;
70049;SDS011;57391;51.306;22.680;2023-07-09T06:51:06;6.30;;;3.60;;
70049;SDS011;57391;51.306;22.680;2023-07-09T06:53:33;5.80;;;3.60;;
70049;SDS011;57391;51.306;22.680;2023-07-09T06:56:00;6.90;;;3.70;;
70049;SDS011;57391;51.306;22.680;2023-07-09T06:58:30;4.50;;;3.30;;
70049;SDS011;57391;51.306;22.680;2023-07-09T07:01:04;5.30;;;3.70;;
70049;SDS011;57391;51.306;22.680;2023-07-09T07:03:32;5.40;;;3.60;;
70049;SDS011;57391;51.306;22.680;2023-07-09T07:06:01;7.40;;;3.50;;
70049;SDS011;57391;51.306;22.680;2023-07-09T07:08:29;5.10;;;3.50;;
70049;SDS011;57391;51.306;22.680;2023-07-09T07:10:57;6.40;;;3.40;;
70049;SDS011;57391;51.306;22.680;2023-07-09T07:13:36;5.80;;;3.90;;
70049;SDS011;57391;51.306;22.680;2023-07-09T07:16:06;5.30;;;3.80;;
70049;SDS011;57391;51.306;22.680;2023-07-09T07:18:35;7.80;;;3.50;;
70049;SDS011;57391;51.306;22.680;2023-07-09T07:21:03;6.10;;;3.70;;
70049;SDS011;57391;51.306;22.680;2023-07-09T07:23:31;6.80;;;3.40;;
70049;SDS011;57391;51.306;22.680;2023-07-09T07:25:58;7.20;;;3.60;;
70049;SDS011;57391;51.306;22.680;2023-07-09T07:28:26;6.00;;;3.70;;
70049;SDS011;57391;51.306;22.680;2023-07-09T07:31:05;6.80;;;3.50;;
70049;SDS011;57391;51.306;22.680;2023-07-09T07:33:35;8.70;;;3.60;;
70049;SDS011;57391;51.306;22.680;2023-07-09T07:36:06;8.20;;;3.70;;
70049;SDS011;57391;51.306;22.680;2023-07-09T07:38:33;6.00;;;3.80;;
70049;SDS011;57391;51.306;22.680;2023-07-09T07:41:01;7.30;;;3.60;;
70049;SDS011;57391;51.306;22.680;2023-07-09T07:43:28;5.70;;;3.50;;
70049;SDS011;57391;51.306;22.680;2023-07-09T07:45:55;6.80;;;3.50;;
70049;SDS011;57391;51.306;22.680;2023-07-09T07:48:22;6.10;;;3.80;;
70049;SDS011;57391;51.306;22.680;2023-07-09T07:50:49;5.60;;;4.10;;
70049;SDS011;57391;51.306;22.680;2023-07-09T07:53:17;6.50;;;4.20;;
70049;SDS011;57391;51.306;22.680;2023-07-09T07:55:43;6.60;;;4.30;;
70049;SDS011;57391;51.306;22.680;2023-07-09T07:58:12;7.10;;;4.50;;
70049;SDS011;57391;51.306;22.680;2023-07-09T08:00:40;8.70;;;4.10;;
70049;SDS011;57391;51.306;22.680;2023-07-09T08:03:07;6.30;;;4.20;;
70049;SDS011;57391;51.306;22.680;2023-07-09T08:05:34;6.30;;;4.30;;
70049;SDS011;57391;51.306;22.680;2023-07-09T08:08:00;7.90;;;4.30;;
70049;SDS011;57391;51.306;22.680;2023-07-09T08:10:27;6.80;;;4.20;;
70049;SDS011;57391;51.306;22.680;2023-07-09T08:12:54;5.40;;;4.10;;
70049;SDS011;57391;51.306;22.680;2023-07-09T08:15:24;9.30;;;4.40;;
70049;SDS011;57391;51.306;22.680;2023-07-09T08:17:51;8.00;;;4.20;;
70049;SDS011;57391;51.306;22.680;2023-07-09T08:20:18;6.40;;;4.00;;
70049;SDS011;57391;51.306;22.680;2023-07-09T08:22:45;5.50;;;3.80;;
70049;SDS011;57391;51.306;22.680;2023-07-09T08:25:12;9.20;;;4.50;;
70049;SDS011;57391;51.306;22.680;2023-07-09T08:27:39;6.70;;;4.30;;
70049;SDS011;57391;51.306;22.680;2023-07-09T08:30:07;6.30;;;4.40;;
70049;SDS011;57391;51.306;22.680;2023-07-09T08:32:34;5.40;;;4.20;;
70049;SDS011;57391;51.306;22.680;2023-07-09T08:35:01;7.00;;;4.30;;
70049;SDS011;57391;51.306;22.680;2023-07-09T08:37:29;7.50;;;3.80;;
70049;SDS011;57391;51.306;22.680;2023-07-09T08:39:56;6.50;;;4.30;;
70049;SDS011;57391;51.306;22.680;2023-07-09T08:42:31;6.00;;;4.10;;
70049;SDS011;57391;51.306;22.680;2023-07-09T08:45:34;6.80;;;4.20;;
70049;SDS011;57391;51.306;22.680;2023-07-09T08:48:21;4.60;;;3.30;;
70049;SDS011;57391;51.306;22.680;2023-07-09T08:50:55;7.50;;;3.40;;
70049;SDS011;57391;51.306;22.680;2023-07-09T08:53:45;7.00;;;3.70;;
70049;SDS011;57391;51.306;22.680;2023-07-09T08:56:19;5.20;;;3.50;;
70049;SDS011;57391;51.306;22.680;2023-07-09T08:58:49;6.90;;;3.30;;
70049;SDS011;57391;51.306;22.680;2023-07-09T09:01:22;5.50;;;3.20;;
70049;SDS011;57391;51.306;22.680;2023-07-09T09:04:02;4.50;;;3.30;;
70049;SDS011;57391;51.306;22.680;2023-07-09T09:06:32;5.90;;;3.50;;
70049;SDS011;57391;51.306;22.680;2023-07-09T09:11:49;7.00;;;3.50;;
70049;SDS011;57391;51.306;22.680;2023-07-09T09:14:39;6.50;;;3.40;;
70049;SDS011;57391;51.306;22.680;2023-07-09T09:17:24;5.80;;;3.60;;
70049;SDS011;57391;51.306;22.680;2023-07-09T09:19:57;5.20;;;3.50;;
70049;SDS011;57391;51.306;22.680;2023-07-09T09:22:31;6.20;;;3.40;;
70049;SDS011;57391;51.306;22.680;2023-07-09T09:27:42;6.50;;;3.20;;
70049;SDS011;57391;51.306;22.680;2023-07-09T09:30:14;4.90;;;3.20;;
70049;SDS011;57391;51.306;22.680;2023-07-09T09:32:47;4.70;;;3.00;;
70049;SDS011;57391;51.306;22.680;2023-07-09T09:35:33;6.90;;;3.20;;
70049;SDS011;57391;51.306;22.680;2023-07-09T09:38:02;5.30;;;3.30;;
70049;SDS011;57391;51.306;22.680;2023-07-09T09:40:36;4.90;;;3.10;;
70049;SDS011;57391;51.306;22.680;2023-07-09T09:43:11;5.10;;;2.90;;
70049;SDS011;57391;51.306;22.680;2023-07-09T09:45:41;5.90;;;3.00;;
70049;SDS011;57391;51.306;22.680;2023-07-09T09:48:18;5.80;;;3.10;;
70049;SDS011;57391;51.306;22.680;2023-07-09T09:50:48;4.90;;;2.80;;
70049;SDS011;57391;51.306;22.680;2023-07-09T09:53:20;5.90;;;3.20;;
70049;SDS011;57391;51.306;22.680;2023-07-09T09:55:53;6.50;;;3.00;;
70049;SDS011;57391;51.306;22.680;2023-07-09T09:58:28;5.70;;;2.80;;
70049;SDS011;57391;51.306;22.680;2023-07-09T10:00:58;5.40;;;2.70;;
70049;SDS011;57391;51.306;22.680;2023-07-09T10:03:37;5.60;;;3.10;;
70049;SDS011;57391;51.306;22.680;2023-07-09T10:06:17;4.40;;;2.60;;
70049;SDS011;57391;51.306;22.680;2023-07-09T10:11:48;6.00;;;3.00;;
70049;SDS011;57391;51.306;22.680;2023-07-09T10:17:48;5.60;;;2.90;;
70049;SDS011;57391;51.306;22.680;2023-07-09T10:23:38;5.00;;;3.00;;
70049;SDS011;57391;51.306;22.680;2023-07-09T10:26:15;5.00;;;3.00;;
70049;SDS011;57391;51.306;22.680;2023-07-09T10:29:00;4.70;;;2.70;;
70049;SDS011;57391;51.306;22.680;2023-07-09T10:31:50;7.00;;;2.90;;
70049;SDS011;57391;51.306;22.680;2023-07-09T10:34:28;7.40;;;2.90;;
70049;SDS011;57391;51.306;22.680;2023-07-09T10:40:39;4.90;;;2.80;;
70049;SDS011;57391;51.306;22.680;2023-07-09T10:43:21;7.30;;;2.90;;
70049;SDS011;57391;51.306;22.680;2023-07-09T10:46:00;5.10;;;2.80;;
70049;SDS011;57391;51.306;22.680;2023-07-09T10:48:38;5.40;;;2.60;;
70049;SDS011;57391;51.306;22.680;2023-07-09T10:51:19;6.30;;;3.00;;
70049;SDS011;57391;51.306;22.680;2023-07-09T10:53:59;4.80;;;2.50;;
70049;SDS011;57391;51.306;22.680;2023-07-09T10:56:34;4.80;;;2.80;;
70049;SDS011;57391;51.306;22.680;2023-07-09T11:01:49;4.50;;;2.60;;
70049;SDS011;57391;51.306;22.680;2023-07-09T11:04:35;5.10;;;2.60;;
70049;SDS011;57391;51.306;22.680;2023-07-09T11:07:11;5.20;;;2.90;;
70049;SDS011;57391;51.306;22.680;2023-07-09T11:09:43;6.70;;;3.00;;
70049;SDS011;57391;51.306;22.680;2023-07-09T11:12:17;6.30;;;2.70;;
70049;SDS011;57391;51.306;22.680;2023-07-09T11:14:54;4.60;;;2.80;;
70049;SDS011;57391;51.306;22.680;2023-07-09T11:17:26;5.40;;;2.80;;
70049;SDS011;57391;51.306;22.680;2023-07-09T11:19:59;7.70;;;2.70;;
70049;SDS011;57391;51.306;22.680;2023-07-09T11:22:39;5.10;;;2.60;;
70049;SDS011;57391;51.306;22.680;2023-07-09T11:25:10;5.40;;;2.50;;
70049;SDS011;57391;51.306;22.680;2023-07-09T11:28:02;4.80;;;2.70;;
70049;SDS011;57391;51.306;22.680;2023-07-09T11:30:32;5.40;;;2.70;;
70049;SDS011;57391;51.306;22.680;2023-07-09T11:33:04;6.70;;;3.20;;
70049;SDS011;57391;51.306;22.680;2023-07-09T11:35:53;5.80;;;2.80;;
70049;SDS011;57391;51.306;22.680;2023-07-09T11:38:43;4.50;;;2.70;;
70049;SDS011;57391;51.306;22.680;2023-07-09T11:41:41;4.30;;;2.50;;
70049;SDS011;57391;51.306;22.680;2023-07-09T11:44:20;6.60;;;3.20;;
70049;SDS011;57391;51.306;22.680;2023-07-09T11:52:46;4.20;;;2.40;;
70049;SDS011;57391;51.306;22.680;2023-07-09T11:58:13;9.70;;;4.00;;
70049;SDS011;57391;51.306;22.680;2023-07-09T12:00:57;5.00;;;2.70;;
70049;SDS011;57391;51.306;22.680;2023-07-09T12:03:30;4.80;;;2.70;;
70049;SDS011;57391;51.306;22.680;2023-07-09T12:06:04;7.40;;;3.40;;
70049;SDS011;57391;51.306;22.680;2023-07-09T12:08:43;4.90;;;2.40;;
70049;SDS011;57391;51.306;22.680;2023-07-09T12:11:29;3.90;;;2.40;;
70049;SDS011;57391;51.306;22.680;2023-07-09T12:14:02;4.30;;;2.30;;
70049;SDS011;57391;51.306;22.680;2023-07-09T12:16:35;3.90;;;2.20;;
70049;SDS011;57391;51.306;22.680;2023-07-09T12:19:04;3.70;;;2.30;;
70049;SDS011;57391;51.306;22.680;2023-07-09T12:21:36;3.70;;;2.00;;
70049;SDS011;57391;51.306;22.680;2023-07-09T12:24:38;4.40;;;2.40;;
70049;SDS011;57391;51.306;22.680;2023-07-09T12:27:23;3.90;;;2.40;;
70049;SDS011;57391;51.306;22.680;2023-07-09T12:29:54;4.20;;;2.30;;
70049;SDS011;57391;51.306;22.680;2023-07-09T12:32:23;5.00;;;2.60;;
70049;SDS011;57391;51.306;22.680;2023-07-09T12:34:55;4.60;;;2.40;;
70049;SDS011;57391;51.306;22.680;2023-07-09T12:37:25;4.40;;;2.30;;
70049;SDS011;57391;51.306;22.680;2023-07-09T12:39:59;5.80;;;2.00;;
70049;SDS011;57391;51.306;22.680;2023-07-09T12:42:33;4.40;;;2.10;;
70049;SDS011;57391;51.306;22.680;2023-07-09T12:45:02;4.20;;;2.30;;
70049;SDS011;57391;51.306;22.680;2023-07-09T12:47:30;3.80;;;2.10;;
70049;SDS011;57391;51.306;22.680;2023-07-09T12:50:03;4.50;;;2.00;;
70049;SDS011;57391;51.306;22.680;2023-07-09T12:52:47;4.50;;;2.00;;
70049;SDS011;57391;51.306;22.680;2023-07-09T12:55:23;3.50;;;1.80;;
70049;SDS011;57391;51.306;22.680;2023-07-09T12:57:57;4.90;;;2.00;;
70049;SDS011;57391;51.306;22.680;2023-07-09T13:00:30;3.30;;;1.80;;
70049;SDS011;57391;51.306;22.680;2023-07-09T13:02:58;3.80;;;1.80;;
70049;SDS011;57391;51.306;22.680;2023-07-09T13:05:26;3.30;;;1.80;;
70049;SDS011;57391;51.306;22.680;2023-07-09T13:08:01;4.50;;;2.00;;
70049;SDS011;57391;51.306;22.680;2023-07-09T13:10:30;5.30;;;1.90;;
70049;SDS011;57391;51.306;22.680;2023-07-09T13:13:05;4.40;;;1.80;;
70049;SDS011;57391;51.306;22.680;2023-07-09T13:15:40;2.80;;;1.70;;
70049;SDS011;57391;51.306;22.680;2023-07-09T13:18:12;4.80;;;1.80;;
70049;SDS011;57391;51.306;22.680;2023-07-09T13:20:45;3.60;;;1.80;;
70049;SDS011;57391;51.306;22.680;2023-07-09T13:23:18;3.10;;;1.50;;
70049;SDS011;57391;51.306;22.680;2023-07-09T13:25:47;2.90;;;1.90;;
70049;SDS011;57391;51.306;22.680;2023-07-09T13:28:28;4.60;;;1.80;;
70049;SDS011;57391;51.306;22.680;2023-07-09T13:30:59;2.10;;;1.40;;
70049;SDS011;57391;51.306;22.680;2023-07-09T13:33:28;2.50;;;1.30;;
70049;SDS011;57391;51.306;22.680;2023-07-09T13:35:56;2.40;;;1.40;;
70049;SDS011;57391;51.306;22.680;2023-07-09T13:38:23;2.80;;;1.40;;
70049;SDS011;57391;51.306;22.680;2023-07-09T13:40:59;2.60;;;1.30;;
70049;SDS011;57391;51.306;22.680;2023-07-09T13:43:30;3.10;;;1.40;;
70049;SDS011;57391;51.306;22.680;2023-07-09T13:46:01;3.60;;;1.50;;
70049;SDS011;57391;51.306;22.680;2023-07-09T13:48:32;2.50;;;1.30;;
70049;SDS011;57391;51.306;22.680;2023-07-09T13:51:01;3.10;;;1.30;;
70049;SDS011;57391;51.306;22.680;2023-07-09T13:53:54;2.80;;;1.70;;
70049;SDS011;57391;51.306;22.680;2023-07-09T13:56:22;3.00;;;1.40;;
70049;SDS011;57391;51.306;22.680;2023-07-09T13:58:50;3.80;;;1.70;;
70049;SDS011;57391;51.306;22.680;2023-07-09T14:01:21;3.60;;;1.70;;
70049;SDS011;57391;51.306;22.680;2023-07-09T14:03:50;2.10;;;1.30;;
70049;SDS011;57391;51.306;22.680;2023-07-09T14:06:21;3.50;;;1.40;;
70049;SDS011;57391;51.306;22.680;2023-07-09T14:08:48;4.20;;;1.30;;
70049;SDS011;57391;51.306;22.680;2023-07-09T14:11:16;2.30;;;1.50;;
70049;SDS011;57391;51.306;22.680;2023-07-09T14:13:45;3.60;;;1.40;;
70049;SDS011;57391;51.306;22.680;2023-07-09T14:16:13;3.40;;;1.70;;
70049;SDS011;57391;51.306;22.680;2023-07-09T14:18:41;2.40;;;1.40;;
70049;SDS011;57391;51.306;22.680;2023-07-09T14:21:13;4.50;;;1.70;;
70049;SDS011;57391;51.306;22.680;2023-07-09T14:23:41;2.90;;;1.50;;
70049;SDS011;57391;51.306;22.680;2023-07-09T14:26:10;5.20;;;1.40;;
70049;SDS011;57391;51.306;22.680;2023-07-09T14:28:37;3.60;;;1.60;;
70049;SDS011;57391;51.306;22.680;2023-07-09T14:31:26;3.20;;;1.50;;
70049;SDS011;57391;51.306;22.680;2023-07-09T14:34:04;3.30;;;1.60;;
70049;SDS011;57391;51.306;22.680;2023-07-09T14:36:43;2.90;;;1.50;;
70049;SDS011;57391;51.306;22.680;2023-07-09T14:39:10;2.50;;;1.50;;
70049;SDS011;57391;51.306;22.680;2023-07-09T14:41:37;2.70;;;1.50;;
70049;SDS011;57391;51.306;22.680;2023-07-09T14:46:52;3.40;;;1.40;;
70049;SDS011;57391;51.306;22.680;2023-07-09T14:49:21;3.70;;;1.60;;
70049;SDS011;57391;51.306;22.680;2023-07-09T14:51:50;3.70;;;1.60;;
70049;SDS011;57391;51.306;22.680;2023-07-09T14:56:54;3.00;;;1.60;;
70049;SDS011;57391;51.306;22.680;2023-07-09T14:59:24;4.00;;;1.60;;
70049;SDS011;57391;51.306;22.680;2023-07-09T15:01:52;4.20;;;1.50;;
70049;SDS011;57391;51.306;22.680;2023-07-09T15:04:33;2.80;;;1.60;;
70049;SDS011;57391;51.306;22.680;2023-07-09T15:07:00;3.20;;;1.40;;
70049;SDS011;57391;51.306;22.680;2023-07-09T15:09:28;3.50;;;1.30;;
70049;SDS011;57391;51.306;22.680;2023-07-09T15:11:57;3.70;;;1.40;;
70049;SDS011;57391;51.306;22.680;2023-07-09T15:14:26;3.30;;;1.20;;
70049;SDS011;57391;51.306;22.680;2023-07-09T15:16:54;2.50;;;1.30;;
70049;SDS011;57391;51.306;22.680;2023-07-09T15:19:22;4.90;;;1.50;;
70049;SDS011;57391;51.306;22.680;2023-07-09T15:21:50;4.30;;;1.40;;
70049;SDS011;57391;51.306;22.680;2023-07-09T15:24:27;3.20;;;1.30;;
70049;SDS011;57391;51.306;22.680;2023-07-09T15:26:58;3.10;;;1.50;;
70049;SDS011;57391;51.306;22.680;2023-07-09T15:29:27;3.90;;;1.30;;
70049;SDS011;57391;51.306;22.680;2023-07-09T15:31:56;3.20;;;1.20;;